sensor_id;sensor_type;location;lat;lon;timestamp;P1;durP1;ratioP1;P2;durP2;ratioP2
15496;SDS011;7850;52.204;5.942;2022-09-09T00:02:37;0.60;;;0.60;;
15496;SDS011;7850;52.204;5.942;2022-09-09T00:02:38;0.55;;;0.55;;
15496;SDS011;7850;52.204;5.942;2022-09-09T00:02:38;0.68;;;0.68;;
15496;SDS011;7850;52.204;5.942;2022-09-09T00:03:22;0.60;;;0.60;;
15496;SDS011;7850;52.204;5.942;2022-09-09T00:04:25;0.60;;;0.60;;
15496;SDS011;7850;52.204;5.942;2022-09-09T00:05:23;0.60;;;0.60;;
15496;SDS011;7850;52.204;5.942;2022-09-09T00:06:23;0.60;;;0.60;;
15496;SDS011;7850;52.204;5.942;2022-09-09T00:07:24;0.68;;;0.68;;
15496;SDS011;7850;52.204;5.942;2022-09-09T00:08:24;0.60;;;0.60;;
15496;SDS011;7850;52.204;5.942;2022-09-09T00:09:24;0.61;;;0.61;;
15496;SDS011;7850;52.204;5.942;2022-09-09T00:10:24;0.60;;;0.60;;
15496;SDS011;7850;52.204;5.942;2022-09-09T00:11:24;0.60;;;0.60;;
15496;SDS011;7850;52.204;5.942;2022-09-09T00:12:24;0.63;;;0.63;;
15496;SDS011;7850;52.204;5.942;2022-09-09T00:13:24;0.64;;;0.64;;
15496;SDS011;7850;52.204;5.942;2022-09-09T00:14:23;0.60;;;0.60;;
15496;SDS011;7850;52.204;5.942;2022-09-09T00:15:24;0.60;;;0.60;;
15496;SDS011;7850;52.204;5.942;2022-09-09T00:16:24;0.61;;;0.61;;
15496;SDS011;7850;52.204;5.942;2022-09-09T00:17:26;0.70;;;0.70;;
15496;SDS011;7850;52.204;5.942;2022-09-09T00:18:24;0.60;;;0.60;;
15496;SDS011;7850;52.204;5.942;2022-09-09T00:19:24;0.62;;;0.62;;
15496;SDS011;7850;52.204;5.942;2022-09-09T00:20:24;0.63;;;0.63;;
15496;SDS011;7850;52.204;5.942;2022-09-09T00:21:23;0.79;;;0.79;;
15496;SDS011;7850;52.204;5.942;2022-09-09T00:22:23;0.80;;;0.80;;
15496;SDS011;7850;52.204;5.942;2022-09-09T00:23:24;0.78;;;0.78;;
15496;SDS011;7850;52.204;5.942;2022-09-09T00:24:24;0.94;;;0.94;;
15496;SDS011;7850;52.204;5.942;2022-09-09T00:25:24;0.62;;;0.62;;
15496;SDS011;7850;52.204;5.942;2022-09-09T00:26:25;0.65;;;0.65;;
15496;SDS011;7850;52.204;5.942;2022-09-09T00:27:25;0.70;;;0.70;;
15496;SDS011;7850;52.204;5.942;2022-09-09T00:28:24;0.56;;;0.56;;
15496;SDS011;7850;52.204;5.942;2022-09-09T00:29:25;0.60;;;0.60;;
15496;SDS011;7850;52.204;5.942;2022-09-09T00:30:24;0.60;;;0.60;;
15496;SDS011;7850;52.204;5.942;2022-09-09T00:31:25;0.81;;;0.81;;
15496;SDS011;7850;52.204;5.942;2022-09-09T00:32:24;0.62;;;0.62;;
15496;SDS011;7850;52.204;5.942;2022-09-09T00:33:23;0.62;;;0.62;;
15496;SDS011;7850;52.204;5.942;2022-09-09T00:34:24;0.60;;;0.60;;
15496;SDS011;7850;52.204;5.942;2022-09-09T00:35:24;0.70;;;0.70;;
15496;SDS011;7850;52.204;5.942;2022-09-09T00:36:24;0.70;;;0.70;;
15496;SDS011;7850;52.204;5.942;2022-09-09T00:37:24;0.57;;;0.57;;
15496;SDS011;7850;52.204;5.942;2022-09-09T00:38:25;0.70;;;0.70;;
15496;SDS011;7850;52.204;5.942;2022-09-09T00:39:25;0.76;;;0.76;;
15496;SDS011;7850;52.204;5.942;2022-09-09T00:40:27;0.69;;;0.69;;
15496;SDS011;7850;52.204;5.942;2022-09-09T00:41:26;0.82;;;0.82;;
15496;SDS011;7850;52.204;5.942;2022-09-09T00:42:25;0.67;;;0.67;;
15496;SDS011;7850;52.204;5.942;2022-09-09T00:43:26;0.80;;;0.80;;
15496;SDS011;7850;52.204;5.942;2022-09-09T00:44:28;0.70;;;0.70;;
15496;SDS011;7850;52.204;5.942;2022-09-09T00:45:30;0.69;;;0.69;;
15496;SDS011;7850;52.204;5.942;2022-09-09T00:46:29;0.72;;;0.72;;
15496;SDS011;7850;52.204;5.942;2022-09-09T00:47:30;0.70;;;0.70;;
15496;SDS011;7850;52.204;5.942;2022-09-09T00:48:26;0.60;;;0.60;;
15496;SDS011;7850;52.204;5.942;2022-09-09T00:49:28;0.70;;;0.70;;
15496;SDS011;7850;52.204;5.942;2022-09-09T00:50:29;0.71;;;0.71;;
15496;SDS011;7850;52.204;5.942;2022-09-09T00:51:27;0.67;;;0.67;;
15496;SDS011;7850;52.204;5.942;2022-09-09T00:52:27;0.60;;;0.60;;
15496;SDS011;7850;52.204;5.942;2022-09-09T00:53:29;0.73;;;0.73;;
15496;SDS011;7850;52.204;5.942;2022-09-09T00:54:31;0.76;;;0.76;;
15496;SDS011;7850;52.204;5.942;2022-09-09T00:55:26;0.70;;;0.70;;
15496;SDS011;7850;52.204;5.942;2022-09-09T00:56:25;0.82;;;0.82;;
15496;SDS011;7850;52.204;5.942;2022-09-09T00:57:26;0.79;;;0.79;;
15496;SDS011;7850;52.204;5.942;2022-09-09T00:58:25;0.82;;;0.82;;
15496;SDS011;7850;52.204;5.942;2022-09-09T00:59:28;0.80;;;0.80;;
15496;SDS011;7850;52.204;5.942;2022-09-09T01:00:26;0.68;;;0.68;;
15496;SDS011;7850;52.204;5.942;2022-09-09T01:01:25;0.63;;;0.63;;
15496;SDS011;7850;52.204;5.942;2022-09-09T01:02:26;0.70;;;0.70;;
15496;SDS011;7850;52.204;5.942;2022-09-09T01:03:28;0.70;;;0.70;;
15496;SDS011;7850;52.204;5.942;2022-09-09T01:04:27;0.60;;;0.60;;
15496;SDS011;7850;52.204;5.942;2022-09-09T01:05:27;0.59;;;0.59;;
15496;SDS011;7850;52.204;5.942;2022-09-09T01:06:27;0.60;;;0.60;;
15496;SDS011;7850;52.204;5.942;2022-09-09T01:07:26;0.70;;;0.70;;
15496;SDS011;7850;52.204;5.942;2022-09-09T01:08:33;0.60;;;0.60;;
15496;SDS011;7850;52.204;5.942;2022-09-09T01:09:27;0.60;;;0.60;;
15496;SDS011;7850;52.204;5.942;2022-09-09T01:10:27;0.78;;;0.78;;
15496;SDS011;7850;52.204;5.942;2022-09-09T01:11:27;0.70;;;0.70;;
15496;SDS011;7850;52.204;5.942;2022-09-09T01:12:30;0.60;;;0.60;;
15496;SDS011;7850;52.204;5.942;2022-09-09T01:13:27;0.71;;;0.71;;
15496;SDS011;7850;52.204;5.942;2022-09-09T01:14:30;0.70;;;0.70;;
15496;SDS011;7850;52.204;5.942;2022-09-09T01:15:27;0.65;;;0.65;;
15496;SDS011;7850;52.204;5.942;2022-09-09T01:16:26;0.70;;;0.70;;
15496;SDS011;7850;52.204;5.942;2022-09-09T01:17:27;0.67;;;0.67;;
15496;SDS011;7850;52.204;5.942;2022-09-09T01:18:27;0.67;;;0.67;;
15496;SDS011;7850;52.204;5.942;2022-09-09T01:19:27;0.70;;;0.70;;
15496;SDS011;7850;52.204;5.942;2022-09-09T01:20:27;0.72;;;0.72;;
15496;SDS011;7850;52.204;5.942;2022-09-09T01:21:30;0.60;;;0.60;;
15496;SDS011;7850;52.204;5.942;2022-09-09T01:22:29;0.67;;;0.67;;
15496;SDS011;7850;52.204;5.942;2022-09-09T01:23:30;0.60;;;0.60;;
15496;SDS011;7850;52.204;5.942;2022-09-09T01:24:27;0.60;;;0.60;;
15496;SDS011;7850;52.204;5.942;2022-09-09T01:25:28;0.60;;;0.60;;
15496;SDS011;7850;52.204;5.942;2022-09-09T01:26:27;0.70;;;0.70;;
15496;SDS011;7850;52.204;5.942;2022-09-09T01:27:27;0.65;;;0.65;;
15496;SDS011;7850;52.204;5.942;2022-09-09T01:28:27;0.70;;;0.70;;
15496;SDS011;7850;52.204;5.942;2022-09-09T01:29:27;0.70;;;0.70;;
15496;SDS011;7850;52.204;5.942;2022-09-09T01:30:27;0.60;;;0.60;;
15496;SDS011;7850;52.204;5.942;2022-09-09T01:31:28;0.69;;;0.69;;
15496;SDS011;7850;52.204;5.942;2022-09-09T01:32:44;0.67;;;0.67;;
15496;SDS011;7850;52.204;5.942;2022-09-09T01:33:27;0.61;;;0.61;;
15496;SDS011;7850;52.204;5.942;2022-09-09T01:34:28;0.60;;;0.60;;
15496;SDS011;7850;52.204;5.942;2022-09-09T01:35:29;0.60;;;0.60;;
15496;SDS011;7850;52.204;5.942;2022-09-09T01:36:29;0.53;;;0.53;;
15496;SDS011;7850;52.204;5.942;2022-09-09T01:37:27;0.60;;;0.60;;
15496;SDS011;7850;52.204;5.942;2022-09-09T01:38:27;0.58;;;0.58;;
15496;SDS011;7850;52.204;5.942;2022-09-09T01:39:27;0.60;;;0.60;;
15496;SDS011;7850;52.204;5.942;2022-09-09T01:40:27;0.60;;;0.60;;
15496;SDS011;7850;52.204;5.942;2022-09-09T01:41:27;0.60;;;0.60;;
15496;SDS011;7850;52.204;5.942;2022-09-09T01:42:28;0.58;;;0.58;;
15496;SDS011;7850;52.204;5.942;2022-09-09T01:43:28;0.91;;;0.91;;
15496;SDS011;7850;52.204;5.942;2022-09-09T01:44:28;0.79;;;0.79;;
15496;SDS011;7850;52.204;5.942;2022-09-09T01:45:28;0.80;;;0.80;;
15496;SDS011;7850;52.204;5.942;2022-09-09T01:46:28;0.97;;;0.97;;
15496;SDS011;7850;52.204;5.942;2022-09-09T01:47:28;0.87;;;0.87;;
15496;SDS011;7850;52.204;5.942;2022-09-09T01:48:28;0.92;;;0.92;;
15496;SDS011;7850;52.204;5.942;2022-09-09T01:49:28;0.80;;;0.80;;
15496;SDS011;7850;52.204;5.942;2022-09-09T01:50:28;0.85;;;0.85;;
15496;SDS011;7850;52.204;5.942;2022-09-09T01:51:28;0.84;;;0.84;;
15496;SDS011;7850;52.204;5.942;2022-09-09T01:52:28;0.79;;;0.79;;
15496;SDS011;7850;52.204;5.942;2022-09-09T01:53:28;0.80;;;0.80;;
15496;SDS011;7850;52.204;5.942;2022-09-09T01:54:29;0.86;;;0.86;;
15496;SDS011;7850;52.204;5.942;2022-09-09T01:55:29;0.89;;;0.89;;
15496;SDS011;7850;52.204;5.942;2022-09-09T01:58:32;0.90;;;0.90;;
15496;SDS011;7850;52.204;5.942;2022-09-09T02:00:29;0.90;;;0.90;;
15496;SDS011;7850;52.204;5.942;2022-09-09T02:01:32;0.84;;;0.84;;
15496;SDS011;7850;52.204;5.942;2022-09-09T02:02:30;0.92;;;0.92;;
15496;SDS011;7850;52.204;5.942;2022-09-09T02:03:29;0.97;;;0.97;;
15496;SDS011;7850;52.204;5.942;2022-09-09T02:04:33;0.93;;;0.93;;
15496;SDS011;7850;52.204;5.942;2022-09-09T02:05:31;0.90;;;0.90;;
15496;SDS011;7850;52.204;5.942;2022-09-09T02:06:30;1.05;;;1.05;;
15496;SDS011;7850;52.204;5.942;2022-09-09T02:07:33;0.98;;;0.98;;
15496;SDS011;7850;52.204;5.942;2022-09-09T02:08:32;1.00;;;1.00;;
15496;SDS011;7850;52.204;5.942;2022-09-09T02:09:29;0.89;;;0.89;;
15496;SDS011;7850;52.204;5.942;2022-09-09T02:10:30;0.90;;;0.90;;
15496;SDS011;7850;52.204;5.942;2022-09-09T02:11:29;0.80;;;0.80;;
15496;SDS011;7850;52.204;5.942;2022-09-09T02:12:29;0.80;;;0.80;;
15496;SDS011;7850;52.204;5.942;2022-09-09T02:14:30;1.04;;;1.04;;
15496;SDS011;7850;52.204;5.942;2022-09-09T02:15:32;1.08;;;1.08;;
15496;SDS011;7850;52.204;5.942;2022-09-09T02:16:30;0.64;;;0.64;;
15496;SDS011;7850;52.204;5.942;2022-09-09T02:17:30;0.69;;;0.69;;
15496;SDS011;7850;52.204;5.942;2022-09-09T02:18:32;0.51;;;0.51;;
15496;SDS011;7850;52.204;5.942;2022-09-09T02:19:31;0.51;;;0.51;;
15496;SDS011;7850;52.204;5.942;2022-09-09T02:20:30;0.57;;;0.57;;
15496;SDS011;7850;52.204;5.942;2022-09-09T02:21:30;0.50;;;0.50;;
15496;SDS011;7850;52.204;5.942;2022-09-09T02:22:30;0.59;;;0.59;;
15496;SDS011;7850;52.204;5.942;2022-09-09T02:23:30;0.50;;;0.50;;
15496;SDS011;7850;52.204;5.942;2022-09-09T02:24:30;0.70;;;0.70;;
15496;SDS011;7850;52.204;5.942;2022-09-09T02:25:30;0.90;;;0.90;;
15496;SDS011;7850;52.204;5.942;2022-09-09T02:26:30;0.95;;;0.95;;
15496;SDS011;7850;52.204;5.942;2022-09-09T02:27:30;0.72;;;0.72;;
15496;SDS011;7850;52.204;5.942;2022-09-09T02:28:31;0.50;;;0.50;;
15496;SDS011;7850;52.204;5.942;2022-09-09T02:29:31;0.60;;;0.60;;
15496;SDS011;7850;52.204;5.942;2022-09-09T02:30:30;0.76;;;0.76;;
15496;SDS011;7850;52.204;5.942;2022-09-09T02:31:30;0.70;;;0.70;;
15496;SDS011;7850;52.204;5.942;2022-09-09T02:32:30;0.80;;;0.80;;
15496;SDS011;7850;52.204;5.942;2022-09-09T02:33:33;0.59;;;0.59;;
15496;SDS011;7850;52.204;5.942;2022-09-09T02:34:31;0.33;;;0.33;;
15496;SDS011;7850;52.204;5.942;2022-09-09T02:35:30;0.61;;;0.61;;
15496;SDS011;7850;52.204;5.942;2022-09-09T02:36:31;0.60;;;0.60;;
15496;SDS011;7850;52.204;5.942;2022-09-09T02:37:32;0.50;;;0.50;;
15496;SDS011;7850;52.204;5.942;2022-09-09T02:38:32;0.60;;;0.60;;
15496;SDS011;7850;52.204;5.942;2022-09-09T02:39:31;0.50;;;0.50;;
15496;SDS011;7850;52.204;5.942;2022-09-09T02:40:31;0.50;;;0.50;;
15496;SDS011;7850;52.204;5.942;2022-09-09T02:41:32;0.62;;;0.62;;
15496;SDS011;7850;52.204;5.942;2022-09-09T02:42:31;0.62;;;0.62;;
15496;SDS011;7850;52.204;5.942;2022-09-09T02:43:31;0.56;;;0.56;;
15496;SDS011;7850;52.204;5.942;2022-09-09T02:44:31;0.50;;;0.50;;
15496;SDS011;7850;52.204;5.942;2022-09-09T02:45:32;0.55;;;0.55;;
15496;SDS011;7850;52.204;5.942;2022-09-09T02:46:35;0.53;;;0.53;;
15496;SDS011;7850;52.204;5.942;2022-09-09T02:47:33;0.98;;;0.98;;
15496;SDS011;7850;52.204;5.942;2022-09-09T02:48:33;1.13;;;1.13;;
15496;SDS011;7850;52.204;5.942;2022-09-09T02:49:34;0.93;;;0.93;;
15496;SDS011;7850;52.204;5.942;2022-09-09T02:50:33;1.10;;;1.10;;
15496;SDS011;7850;52.204;5.942;2022-09-09T02:51:33;1.09;;;1.09;;
15496;SDS011;7850;52.204;5.942;2022-09-09T02:52:33;1.13;;;1.13;;
15496;SDS011;7850;52.204;5.942;2022-09-09T02:53:33;1.10;;;1.10;;
15496;SDS011;7850;52.204;5.942;2022-09-09T02:54:32;1.15;;;1.15;;
15496;SDS011;7850;52.204;5.942;2022-09-09T02:55:35;1.20;;;1.20;;
15496;SDS011;7850;52.204;5.942;2022-09-09T02:56:32;1.27;;;1.27;;
15496;SDS011;7850;52.204;5.942;2022-09-09T02:57:32;1.13;;;1.13;;
15496;SDS011;7850;52.204;5.942;2022-09-09T02:58:32;0.90;;;0.90;;
15496;SDS011;7850;52.204;5.942;2022-09-09T02:59:32;1.18;;;1.18;;
15496;SDS011;7850;52.204;5.942;2022-09-09T03:00:32;1.12;;;1.12;;
15496;SDS011;7850;52.204;5.942;2022-09-09T03:01:32;0.88;;;0.88;;
15496;SDS011;7850;52.204;5.942;2022-09-09T03:02:32;1.03;;;1.03;;
15496;SDS011;7850;52.204;5.942;2022-09-09T03:03:32;1.05;;;1.05;;
15496;SDS011;7850;52.204;5.942;2022-09-09T03:04:32;0.97;;;0.97;;
15496;SDS011;7850;52.204;5.942;2022-09-09T03:05:32;1.17;;;1.17;;
15496;SDS011;7850;52.204;5.942;2022-09-09T03:06:32;1.12;;;1.12;;
15496;SDS011;7850;52.204;5.942;2022-09-09T03:07:32;1.24;;;1.24;;
15496;SDS011;7850;52.204;5.942;2022-09-09T03:08:32;1.31;;;1.31;;
15496;SDS011;7850;52.204;5.942;2022-09-09T03:09:32;1.29;;;1.29;;
15496;SDS011;7850;52.204;5.942;2022-09-09T03:10:33;1.20;;;1.20;;
15496;SDS011;7850;52.204;5.942;2022-09-09T03:11:33;1.11;;;1.11;;
15496;SDS011;7850;52.204;5.942;2022-09-09T03:12:33;1.17;;;1.17;;
15496;SDS011;7850;52.204;5.942;2022-09-09T03:13:33;1.16;;;1.16;;
15496;SDS011;7850;52.204;5.942;2022-09-09T03:14:33;1.15;;;1.15;;
15496;SDS011;7850;52.204;5.942;2022-09-09T03:15:33;1.22;;;1.22;;
15496;SDS011;7850;52.204;5.942;2022-09-09T03:16:33;1.39;;;1.39;;
15496;SDS011;7850;52.204;5.942;2022-09-09T03:17:33;1.11;;;1.11;;
15496;SDS011;7850;52.204;5.942;2022-09-09T03:18:33;1.13;;;1.13;;
15496;SDS011;7850;52.204;5.942;2022-09-09T03:19:33;1.28;;;1.28;;
15496;SDS011;7850;52.204;5.942;2022-09-09T03:20:33;1.17;;;1.17;;
15496;SDS011;7850;52.204;5.942;2022-09-09T03:21:33;1.18;;;1.18;;
15496;SDS011;7850;52.204;5.942;2022-09-09T03:22:33;1.18;;;1.18;;
15496;SDS011;7850;52.204;5.942;2022-09-09T03:23:33;1.32;;;1.32;;
15496;SDS011;7850;52.204;5.942;2022-09-09T03:24:34;1.09;;;1.09;;
15496;SDS011;7850;52.204;5.942;2022-09-09T03:25:34;1.30;;;1.30;;
15496;SDS011;7850;52.204;5.942;2022-09-09T03:26:34;1.37;;;1.37;;
15496;SDS011;7850;52.204;5.942;2022-09-09T03:27:34;1.18;;;1.18;;
15496;SDS011;7850;52.204;5.942;2022-09-09T03:28:34;1.13;;;1.13;;
15496;SDS011;7850;52.204;5.942;2022-09-09T03:29:34;1.29;;;1.29;;
15496;SDS011;7850;52.204;5.942;2022-09-09T03:30:34;1.20;;;1.20;;
15496;SDS011;7850;52.204;5.942;2022-09-09T03:31:34;1.36;;;1.36;;
15496;SDS011;7850;52.204;5.942;2022-09-09T03:32:34;0.96;;;0.96;;
15496;SDS011;7850;52.204;5.942;2022-09-09T03:33:34;1.08;;;1.08;;
15496;SDS011;7850;52.204;5.942;2022-09-09T03:34:34;1.11;;;1.11;;
15496;SDS011;7850;52.204;5.942;2022-09-09T03:35:34;1.07;;;1.07;;
15496;SDS011;7850;52.204;5.942;2022-09-09T03:36:35;1.02;;;1.02;;
15496;SDS011;7850;52.204;5.942;2022-09-09T03:37:34;1.32;;;1.32;;
15496;SDS011;7850;52.204;5.942;2022-09-09T03:38:34;1.01;;;1.01;;
15496;SDS011;7850;52.204;5.942;2022-09-09T03:39:35;1.24;;;1.24;;
15496;SDS011;7850;52.204;5.942;2022-09-09T03:40:35;0.92;;;0.92;;
15496;SDS011;7850;52.204;5.942;2022-09-09T03:41:35;1.18;;;1.18;;
15496;SDS011;7850;52.204;5.942;2022-09-09T03:42:35;1.03;;;1.03;;
15496;SDS011;7850;52.204;5.942;2022-09-09T03:43:35;1.00;;;1.00;;
15496;SDS011;7850;52.204;5.942;2022-09-09T03:44:35;0.78;;;0.78;;
15496;SDS011;7850;52.204;5.942;2022-09-09T03:45:35;1.09;;;1.09;;
15496;SDS011;7850;52.204;5.942;2022-09-09T03:46:35;1.26;;;1.26;;
15496;SDS011;7850;52.204;5.942;2022-09-09T03:47:35;1.63;;;1.63;;
15496;SDS011;7850;52.204;5.942;2022-09-09T03:48:35;1.18;;;1.18;;
15496;SDS011;7850;52.204;5.942;2022-09-09T03:49:35;1.45;;;1.45;;
15496;SDS011;7850;52.204;5.942;2022-09-09T03:50:35;1.64;;;1.64;;
15496;SDS011;7850;52.204;5.942;2022-09-09T03:51:35;1.42;;;1.42;;
15496;SDS011;7850;52.204;5.942;2022-09-09T03:52:35;1.41;;;1.41;;
15496;SDS011;7850;52.204;5.942;2022-09-09T03:53:36;1.14;;;1.14;;
15496;SDS011;7850;52.204;5.942;2022-09-09T03:54:36;1.01;;;1.01;;
15496;SDS011;7850;52.204;5.942;2022-09-09T03:55:36;1.43;;;1.43;;
15496;SDS011;7850;52.204;5.942;2022-09-09T03:56:36;1.43;;;1.43;;
15496;SDS011;7850;52.204;5.942;2022-09-09T03:57:36;1.35;;;1.35;;
15496;SDS011;7850;52.204;5.942;2022-09-09T03:58:36;1.41;;;1.41;;
15496;SDS011;7850;52.204;5.942;2022-09-09T03:59:36;1.07;;;1.07;;
15496;SDS011;7850;52.204;5.942;2022-09-09T04:00:36;1.52;;;1.52;;
15496;SDS011;7850;52.204;5.942;2022-09-09T04:01:36;1.35;;;1.35;;
15496;SDS011;7850;52.204;5.942;2022-09-09T04:02:36;0.91;;;0.91;;
15496;SDS011;7850;52.204;5.942;2022-09-09T04:03:36;0.79;;;0.79;;
15496;SDS011;7850;52.204;5.942;2022-09-09T04:04:36;1.07;;;1.07;;
15496;SDS011;7850;52.204;5.942;2022-09-09T04:05:36;0.83;;;0.83;;
15496;SDS011;7850;52.204;5.942;2022-09-09T04:06:36;1.07;;;1.07;;
15496;SDS011;7850;52.204;5.942;2022-09-09T04:07:36;0.90;;;0.90;;
15496;SDS011;7850;52.204;5.942;2022-09-09T04:08:37;0.91;;;0.91;;
15496;SDS011;7850;52.204;5.942;2022-09-09T04:09:37;0.89;;;0.89;;
15496;SDS011;7850;52.204;5.942;2022-09-09T04:10:37;1.00;;;1.00;;
15496;SDS011;7850;52.204;5.942;2022-09-09T04:11:37;1.16;;;1.16;;
15496;SDS011;7850;52.204;5.942;2022-09-09T04:12:37;0.87;;;0.87;;
15496;SDS011;7850;52.204;5.942;2022-09-09T04:13:37;1.01;;;1.01;;
15496;SDS011;7850;52.204;5.942;2022-09-09T04:14:37;1.24;;;1.24;;
15496;SDS011;7850;52.204;5.942;2022-09-09T04:15:37;1.27;;;1.27;;
15496;SDS011;7850;52.204;5.942;2022-09-09T04:16:37;0.98;;;0.98;;
15496;SDS011;7850;52.204;5.942;2022-09-09T04:17:37;1.08;;;1.08;;
15496;SDS011;7850;52.204;5.942;2022-09-09T04:18:37;1.30;;;1.30;;
15496;SDS011;7850;52.204;5.942;2022-09-09T04:19:37;1.36;;;1.36;;
15496;SDS011;7850;52.204;5.942;2022-09-09T04:20:37;0.90;;;0.90;;
15496;SDS011;7850;52.204;5.942;2022-09-09T04:21:38;1.18;;;1.18;;
15496;SDS011;7850;52.204;5.942;2022-09-09T04:22:38;1.13;;;1.13;;
15496;SDS011;7850;52.204;5.942;2022-09-09T04:23:38;1.23;;;1.23;;
15496;SDS011;7850;52.204;5.942;2022-09-09T04:24:38;1.28;;;1.28;;
15496;SDS011;7850;52.204;5.942;2022-09-09T04:25:38;1.19;;;1.19;;
15496;SDS011;7850;52.204;5.942;2022-09-09T04:26:38;1.18;;;1.18;;
15496;SDS011;7850;52.204;5.942;2022-09-09T04:27:38;1.31;;;1.31;;
15496;SDS011;7850;52.204;5.942;2022-09-09T04:28:38;1.43;;;1.43;;
15496;SDS011;7850;52.204;5.942;2022-09-09T04:29:38;1.24;;;1.24;;
15496;SDS011;7850;52.204;5.942;2022-09-09T04:30:38;1.14;;;1.14;;
15496;SDS011;7850;52.204;5.942;2022-09-09T04:31:38;1.43;;;1.43;;
15496;SDS011;7850;52.204;5.942;2022-09-09T04:32:38;1.52;;;1.52;;
15496;SDS011;7850;52.204;5.942;2022-09-09T04:33:38;1.10;;;1.10;;
15496;SDS011;7850;52.204;5.942;2022-09-09T04:34:38;1.07;;;1.07;;
15496;SDS011;7850;52.204;5.942;2022-09-09T04:35:39;1.00;;;1.00;;
15496;SDS011;7850;52.204;5.942;2022-09-09T04:36:38;0.80;;;0.80;;
15496;SDS011;7850;52.204;5.942;2022-09-09T04:37:38;1.08;;;1.08;;
15496;SDS011;7850;52.204;5.942;2022-09-09T04:38:39;0.99;;;0.99;;
15496;SDS011;7850;52.204;5.942;2022-09-09T04:39:39;1.10;;;1.10;;
15496;SDS011;7850;52.204;5.942;2022-09-09T04:40:39;1.14;;;1.14;;
15496;SDS011;7850;52.204;5.942;2022-09-09T04:41:39;1.38;;;1.38;;
15496;SDS011;7850;52.204;5.942;2022-09-09T04:42:39;1.07;;;1.07;;
15496;SDS011;7850;52.204;5.942;2022-09-09T04:43:39;1.01;;;1.01;;
15496;SDS011;7850;52.204;5.942;2022-09-09T04:44:39;1.26;;;1.26;;
15496;SDS011;7850;52.204;5.942;2022-09-09T04:45:39;1.13;;;1.13;;
15496;SDS011;7850;52.204;5.942;2022-09-09T04:46:39;1.11;;;1.11;;
15496;SDS011;7850;52.204;5.942;2022-09-09T04:47:39;1.09;;;1.09;;
15496;SDS011;7850;52.204;5.942;2022-09-09T04:48:39;1.17;;;1.17;;
15496;SDS011;7850;52.204;5.942;2022-09-09T04:49:39;1.03;;;1.03;;
15496;SDS011;7850;52.204;5.942;2022-09-09T04:50:39;1.11;;;1.11;;
15496;SDS011;7850;52.204;5.942;2022-09-09T04:51:39;0.90;;;0.90;;
15496;SDS011;7850;52.204;5.942;2022-09-09T04:52:39;1.08;;;1.08;;
15496;SDS011;7850;52.204;5.942;2022-09-09T04:53:40;0.74;;;0.74;;
15496;SDS011;7850;52.204;5.942;2022-09-09T04:54:40;1.03;;;1.03;;
15496;SDS011;7850;52.204;5.942;2022-09-09T04:55:40;0.94;;;0.94;;
15496;SDS011;7850;52.204;5.942;2022-09-09T04:56:40;1.01;;;1.01;;
15496;SDS011;7850;52.204;5.942;2022-09-09T04:57:40;0.94;;;0.94;;
15496;SDS011;7850;52.204;5.942;2022-09-09T04:58:40;0.80;;;0.80;;
15496;SDS011;7850;52.204;5.942;2022-09-09T04:59:40;0.98;;;0.98;;
15496;SDS011;7850;52.204;5.942;2022-09-09T05:00:40;0.90;;;0.90;;
15496;SDS011;7850;52.204;5.942;2022-09-09T05:01:40;0.80;;;0.80;;
15496;SDS011;7850;52.204;5.942;2022-09-09T05:02:40;0.79;;;0.79;;
15496;SDS011;7850;52.204;5.942;2022-09-09T05:03:40;0.89;;;0.89;;
15496;SDS011;7850;52.204;5.942;2022-09-09T05:04:40;0.95;;;0.95;;
15496;SDS011;7850;52.204;5.942;2022-09-09T05:05:40;1.02;;;1.02;;
15496;SDS011;7850;52.204;5.942;2022-09-09T05:06:40;1.10;;;1.10;;
15496;SDS011;7850;52.204;5.942;2022-09-09T05:07:40;1.20;;;1.20;;
15496;SDS011;7850;52.204;5.942;2022-09-09T05:08:41;1.26;;;1.26;;
15496;SDS011;7850;52.204;5.942;2022-09-09T05:09:41;1.07;;;1.07;;
15496;SDS011;7850;52.204;5.942;2022-09-09T05:10:41;0.92;;;0.92;;
15496;SDS011;7850;52.204;5.942;2022-09-09T05:11:41;1.03;;;1.03;;
15496;SDS011;7850;52.204;5.942;2022-09-09T05:12:41;1.18;;;1.18;;
15496;SDS011;7850;52.204;5.942;2022-09-09T05:13:41;1.25;;;1.25;;
15496;SDS011;7850;52.204;5.942;2022-09-09T05:14:41;0.95;;;0.95;;
15496;SDS011;7850;52.204;5.942;2022-09-09T05:15:41;1.09;;;1.09;;
15496;SDS011;7850;52.204;5.942;2022-09-09T05:16:41;1.08;;;1.08;;
15496;SDS011;7850;52.204;5.942;2022-09-09T05:17:41;1.19;;;1.19;;
15496;SDS011;7850;52.204;5.942;2022-09-09T05:18:41;1.09;;;1.09;;
15496;SDS011;7850;52.204;5.942;2022-09-09T05:19:41;0.97;;;0.97;;
15496;SDS011;7850;52.204;5.942;2022-09-09T05:20:41;1.19;;;1.19;;
15496;SDS011;7850;52.204;5.942;2022-09-09T05:21:41;1.19;;;1.19;;
15496;SDS011;7850;52.204;5.942;2022-09-09T05:22:42;0.99;;;0.99;;
15496;SDS011;7850;52.204;5.942;2022-09-09T05:23:41;0.90;;;0.90;;
15496;SDS011;7850;52.204;5.942;2022-09-09T05:24:42;1.06;;;1.06;;
15496;SDS011;7850;52.204;5.942;2022-09-09T05:25:42;1.04;;;1.04;;
15496;SDS011;7850;52.204;5.942;2022-09-09T05:26:42;1.26;;;1.26;;
15496;SDS011;7850;52.204;5.942;2022-09-09T05:27:42;1.11;;;1.11;;
15496;SDS011;7850;52.204;5.942;2022-09-09T05:28:42;0.96;;;0.96;;
15496;SDS011;7850;52.204;5.942;2022-09-09T05:29:42;1.00;;;1.00;;
15496;SDS011;7850;52.204;5.942;2022-09-09T05:30:42;1.04;;;1.04;;
15496;SDS011;7850;52.204;5.942;2022-09-09T05:31:42;1.14;;;1.14;;
15496;SDS011;7850;52.204;5.942;2022-09-09T05:32:42;1.11;;;1.11;;
15496;SDS011;7850;52.204;5.942;2022-09-09T05:33:43;0.96;;;0.96;;
15496;SDS011;7850;52.204;5.942;2022-09-09T05:34:42;0.95;;;0.95;;
15496;SDS011;7850;52.204;5.942;2022-09-09T05:35:42;1.15;;;1.15;;
15496;SDS011;7850;52.204;5.942;2022-09-09T05:36:42;1.13;;;1.13;;
15496;SDS011;7850;52.204;5.942;2022-09-09T05:37:42;0.65;;;0.65;;
15496;SDS011;7850;52.204;5.942;2022-09-09T05:38:43;0.67;;;0.67;;
15496;SDS011;7850;52.204;5.942;2022-09-09T05:39:42;0.70;;;0.70;;
15496;SDS011;7850;52.204;5.942;2022-09-09T05:40:46;0.70;;;0.70;;
15496;SDS011;7850;52.204;5.942;2022-09-09T05:41:43;0.67;;;0.67;;
15496;SDS011;7850;52.204;5.942;2022-09-09T05:42:43;1.97;;;1.96;;
15496;SDS011;7850;52.204;5.942;2022-09-09T05:43:43;2.97;;;2.87;;
15496;SDS011;7850;52.204;5.942;2022-09-09T05:44:43;1.62;;;1.60;;
15496;SDS011;7850;52.204;5.942;2022-09-09T05:45:43;0.95;;;0.95;;
15496;SDS011;7850;52.204;5.942;2022-09-09T05:46:43;0.89;;;0.89;;
15496;SDS011;7850;52.204;5.942;2022-09-09T05:47:43;1.02;;;1.02;;
15496;SDS011;7850;52.204;5.942;2022-09-09T05:48:44;0.90;;;0.90;;
15496;SDS011;7850;52.204;5.942;2022-09-09T05:49:43;0.87;;;0.87;;
15496;SDS011;7850;52.204;5.942;2022-09-09T05:50:43;0.94;;;0.94;;
15496;SDS011;7850;52.204;5.942;2022-09-09T05:51:43;1.10;;;1.10;;
15496;SDS011;7850;52.204;5.942;2022-09-09T05:52:43;0.96;;;0.96;;
15496;SDS011;7850;52.204;5.942;2022-09-09T05:53:44;1.01;;;1.01;;
15496;SDS011;7850;52.204;5.942;2022-09-09T05:54:44;0.97;;;0.97;;
15496;SDS011;7850;52.204;5.942;2022-09-09T05:55:44;1.02;;;1.02;;
15496;SDS011;7850;52.204;5.942;2022-09-09T05:56:44;1.10;;;1.10;;
15496;SDS011;7850;52.204;5.942;2022-09-09T05:57:47;0.82;;;0.82;;
15496;SDS011;7850;52.204;5.942;2022-09-09T05:58:44;1.24;;;1.24;;
15496;SDS011;7850;52.204;5.942;2022-09-09T05:59:44;1.03;;;1.03;;
15496;SDS011;7850;52.204;5.942;2022-09-09T06:00:44;1.00;;;1.00;;
15496;SDS011;7850;52.204;5.942;2022-09-09T06:01:44;0.86;;;0.86;;
15496;SDS011;7850;52.204;5.942;2022-09-09T06:02:49;0.95;;;0.95;;
15496;SDS011;7850;52.204;5.942;2022-09-09T06:03:45;1.73;;;1.73;;
15496;SDS011;7850;52.204;5.942;2022-09-09T06:04:44;0.77;;;0.77;;
15496;SDS011;7850;52.204;5.942;2022-09-09T06:05:44;0.72;;;0.72;;
15496;SDS011;7850;52.204;5.942;2022-09-09T06:06:44;0.90;;;0.90;;
15496;SDS011;7850;52.204;5.942;2022-09-09T06:07:44;0.80;;;0.80;;
15496;SDS011;7850;52.204;5.942;2022-09-09T06:08:44;0.73;;;0.73;;
15496;SDS011;7850;52.204;5.942;2022-09-09T06:09:44;2.01;;;2.01;;
15496;SDS011;7850;52.204;5.942;2022-09-09T06:10:45;1.56;;;1.56;;